.
WxDataArchive / Data Records for 2012-03-03
2012-03-02 March 2012 2012-03-04

Data Records for Saturday, 03 March 2012

Time	Temp	Chill	HIndex	Humid	Dewpt	 Wind 	HiWind	WindDir	Rain 	Barom 
-----	----	-----	------	-----	-----	------	------	-------	-----	----- 
00:00	36.5	31.6	36.5	75	29.3	6	12	270	0.00	29.480 
00:05	36.3	31.4	36.3	74	28.8	6	9	270	0.00	29.480 
00:10	36.3	31.4	36.3	74	28.8	6	12	270	0.00	29.480 
00:15	36.3	31.4	36.3	74	28.8	6	13	270	0.00	29.489 
00:20	36.2	30.6	36.2	74	28.7	7	15	270	0.00	29.489 
00:25	36.2	30.6	36.2	73	28.4	7	11	270	0.00	29.489 
00:30	36.2	31.2	36.2	73	28.4	6	12	270	0.00	29.502 
00:35	36.0	31.0	36.0	73	28.2	6	11	270	0.00	29.502 
00:40	36.2	30.6	36.2	72	28.1	7	12	270	0.00	29.502 
00:45	36.0	31.8	36.0	73	28.2	5	11	270	0.00	29.505 
00:50	36.2	32.0	36.2	74	28.7	5	11	270	0.00	29.505 
00:55	36.2	32.9	36.2	74	28.7	4	7	270	0.00	29.505 
01:00	36.2	32.0	36.2	75	29.1	5	9	270	0.00	29.515 
01:05	36.3	30.7	36.3	74	28.8	7	15	270	0.00	29.515 
01:10	36.5	31.6	36.5	74	29.0	6	12	270	0.00	29.515 
01:15	36.5	32.4	36.5	74	29.0	5	9	270	0.00	29.517 
01:20	36.5	32.4	36.5	74	29.0	5	12	270	0.00	29.517 
01:25	36.6	31.7	36.6	74	29.1	6	14	270	0.00	29.517 
01:30	36.6	31.7	36.6	73	28.8	6	12	270	0.00	29.521 
01:35	36.5	31.6	36.5	73	28.7	6	11	270	0.00	29.521 
01:40	36.3	31.4	36.3	73	28.5	6	11	270	0.00	29.521 
01:45	36.2	31.2	36.2	73	28.4	6	10	270	0.00	29.529 
01:50	36.0	31.8	36.0	73	28.2	5	11	270	0.00	29.529 
01:55	35.9	32.6	35.9	73	28.1	4	9	270	0.00	29.529 
02:00	35.8	32.5	35.8	73	28.0	4	9	270	0.00	29.534 
02:05	35.6	31.3	35.6	74	28.1	5	7	270	0.00	29.534 
02:10	35.5	32.1	35.5	74	28.0	4	9	270	0.00	29.534 
02:15	35.3	31.9	35.3	75	28.2	4	7	248	0.00	29.536 
02:20	35.2	30.8	35.2	75	28.1	5	10	270	0.00	29.536 
02:25	35.0	31.5	35.0	76	28.2	4	9	270	0.00	29.536 
02:30	34.9	30.5	34.9	76	28.1	5	10	270	0.00	29.543 
02:35	34.9	30.5	34.9	76	28.1	5	11	270	0.00	29.543 
02:40	34.7	31.2	34.7	76	27.9	4	7	270	0.00	29.543 
02:45	34.7	31.2	34.7	76	27.9	4	9	270	0.00	29.552 
02:50	34.7	31.2	34.7	76	27.9	4	7	270	0.00	29.552 
02:55	34.7	30.2	34.7	76	27.9	5	10	248	0.00	29.552 
03:00	34.9	29.7	34.9	74	27.5	6	13	270	0.00	29.553 
03:05	35.0	30.6	35.0	73	27.2	5	12	270	0.00	29.553 
03:10	34.9	31.4	34.9	73	27.1	4	7	270	0.00	29.553 
03:15	35.0	30.6	35.0	72	26.9	5	12	270	0.00	29.559 
03:20	35.0	31.5	35.0	72	26.9	4	7	270	0.00	29.559 
03:25	35.0	35.0	35.0	73	27.2	3	6	270	0.00	29.559 
03:30	34.9	31.4	34.9	72	26.8	4	9	248	0.00	29.562 
03:35	34.7	31.2	34.7	70	25.9	4	9	270	0.00	29.562 
03:40	34.7	30.2	34.7	70	25.9	5	11	270	0.00	29.562 
03:45	34.9	31.4	34.9	70	26.1	4	7	270	0.00	29.561 
03:50	34.7	34.7	34.7	71	26.3	3	5	248	0.00	29.561 
03:55	34.7	34.7	34.7	72	26.6	2	4	248	0.00	29.561 
04:00	34.6	34.6	34.6	72	26.5	3	9	248	0.00	29.566 
04:05	34.6	30.1	34.6	69	25.5	5	12	270	0.00	29.566 
04:10	34.6	34.6	34.6	69	25.5	3	9	270	0.00	29.566 
04:15	34.6	31.1	34.6	69	25.5	4	9	270	0.00	29.565 
04:20	34.4	34.4	34.4	69	25.3	3	6	270	0.00	29.565 
04:25	34.4	34.4	34.4	70	25.6	3	8	248	0.00	29.565 
04:30	34.3	30.7	34.3	70	25.5	4	9	248	0.00	29.569 
04:35	34.1	30.5	34.1	69	25.0	4	13	270	0.00	29.569 
04:40	33.8	29.2	33.8	69	24.7	5	11	270	0.00	29.569 
04:45	33.8	33.8	33.8	70	25.1	3	6	248	0.00	29.582 
04:50	33.7	33.7	33.7	70	25.0	3	7	270	0.00	29.582 
04:55	33.7	33.7	33.7	69	24.6	3	7	270	0.00	29.582 
05:00	33.7	33.7	33.7	70	25.0	3	6	270	0.00	29.583 
05:05	33.7	33.7	33.7	70	25.0	3	5	270	0.00	29.583 
05:10	33.5	33.5	33.5	71	25.1	3	7	248	0.00	29.583 
05:15	33.5	33.5	33.5	72	25.5	3	6	248	0.00	29.583 
05:20	33.5	33.5	33.5	72	25.5	3	7	248	0.00	29.583 
05:25	33.5	29.8	33.5	71	25.1	4	11	248	0.00	29.583 
05:30	33.5	28.8	33.5	69	24.4	5	13	270	0.00	29.596 
05:35	33.5	29.8	33.5	68	24.1	4	9	248	0.00	29.596 
05:40	33.4	29.7	33.4	68	24.0	4	7	248	0.00	29.596 
05:45	33.2	29.5	33.2	69	24.2	4	9	270	0.00	29.600 
05:50	33.2	28.5	33.2	69	24.2	5	12	270	0.00	29.600 
05:55	33.1	28.4	33.1	69	24.1	5	12	270	0.00	29.600 
06:00	32.9	28.1	32.9	68	23.5	5	11	248	0.00	29.611 
06:05	32.9	29.1	32.9	68	23.5	4	13	248	0.00	29.611 
06:10	32.8	28.0	32.8	67	23.1	5	11	270	0.00	29.611 
06:15	32.8	27.2	32.8	67	23.1	6	11	270	0.00	29.610 
06:20	32.8	28.0	32.8	66	22.7	5	10	270	0.00	29.610 
06:25	32.8	29.0	32.8	67	23.1	4	10	248	0.00	29.610 
06:30	32.8	29.0	32.8	67	23.1	4	6	248	0.00	29.611 
06:35	32.7	27.9	32.7	68	23.3	5	10	248	0.00	29.611 
06:40	32.7	28.9	32.7	68	23.3	4	9	270	0.00	29.611 
06:45	32.7	28.9	32.7	69	23.7	4	7	248	0.00	29.622 
06:50	32.7	28.9	32.7	69	23.7	4	9	270	0.00	29.622 
06:55	32.5	28.7	32.5	69	23.5	4	10	248	0.00	29.622 
07:00	32.5	27.7	32.5	69	23.5	5	10	270	0.00	29.628 
07:05	32.5	28.7	32.5	69	23.5	4	6	270	0.00	29.628 
07:10	32.4	28.5	32.4	69	23.4	4	7	270	0.00	29.628 
07:15	32.4	28.5	32.4	69	23.4	4	7	270	0.00	29.645 
07:20	32.4	28.5	32.4	68	23.0	4	7	270	0.00	29.645 
07:25	32.4	27.5	32.4	66	22.3	5	11	270	0.00	29.645 
07:30	32.2	27.3	32.2	65	21.8	5	10	270	0.00	29.649 
07:35	32.2	28.3	32.2	65	21.8	4	6	248	0.00	29.649 
07:40	32.2	32.2	32.2	65	21.8	3	6	270	0.00	29.649 
07:45	32.2	32.2	32.2	66	22.1	2	6	248	0.00	29.652 
07:50	32.2	28.3	32.2	66	22.1	4	9	248	0.00	29.652 
07:55	32.1	28.2	32.1	66	22.0	4	10	248	0.00	29.652 
08:00	32.1	28.2	32.1	66	22.0	4	9	248	0.00	29.661 
08:05	32.1	28.2	32.1	65	21.7	4	12	248	0.00	29.661 
08:10	32.2	28.3	32.2	65	21.8	4	7	270	0.00	29.661 
08:15	32.2	32.2	32.2	65	21.8	3	11	270	0.00	29.668 
08:20	32.2	32.2	32.2	65	21.8	3	9	270	0.00	29.668 
08:25	32.2	32.2	32.2	65	21.8	3	6	248	0.00	29.668 
08:30	32.4	28.5	32.4	65	22.0	4	11	248	0.00	29.672 
08:35	32.4	28.5	32.4	65	22.0	4	12	248	0.00	29.672 
08:40	32.4	28.5	32.4	64	21.6	4	13	248	0.00	29.672 
08:45	32.4	27.5	32.4	64	21.6	5	9	248	0.00	29.682 
08:50	32.4	27.5	32.4	63	21.2	5	11	270	0.00	29.682 
08:55	32.4	28.5	32.4	63	21.2	4	9	270	0.00	29.682 
09:00	32.4	28.5	32.4	64	21.6	4	9	270	0.00	29.686 
09:05	32.4	28.5	32.4	65	22.0	4	9	270	0.00	29.686 
09:10	32.4	28.5	32.4	65	22.0	4	6	248	0.00	29.686 
09:15	32.4	32.4	32.4	66	22.3	3	7	248	0.00	29.696 
09:20	32.4	28.5	32.4	66	22.3	4	10	248	0.00	29.696 
09:25	32.4	28.5	32.4	65	22.0	4	9	270	0.00	29.696 
09:30	32.5	28.7	32.5	65	22.1	4	8	248	0.00	29.697 
09:35	32.7	27.9	32.7	65	22.3	5	11	270	0.00	29.697 
09:40	33.2	29.5	33.2	65	22.7	4	10	248	0.00	29.697 
09:45	33.5	29.8	33.5	64	22.6	4	10	270	0.00	29.699 
09:50	33.5	28.0	33.5	64	22.6	6	10	270	0.00	29.699 
09:55	33.4	28.7	33.4	65	22.9	5	13	248	0.00	29.699 
10:00	33.1	28.4	33.1	69	24.1	5	13	248	0.00	29.704 
10:05	33.2	29.5	33.2	70	24.5	4	10	270	0.00	29.704 
10:10	33.2	29.5	33.2	69	24.2	4	14	270	0.00	29.704 
10:15	33.1	29.3	33.1	67	23.4	4	9	248	0.00	29.706 
10:20	33.1	33.1	33.1	67	23.4	3	6	270	0.00	29.706 
10:25	32.9	29.1	32.9	67	23.2	4	12	248	0.00	29.706 
10:30	32.8	29.0	32.8	68	23.4	4	10	270	0.00	29.715 
10:35	32.9	32.9	32.9	69	23.9	3	9	248	0.00	29.715 
10:40	33.2	28.5	33.2	67	23.4	5	12	248	0.00	29.715 
10:45	33.7	30.0	33.7	65	23.2	4	7	270	0.00	29.717 
10:50	33.5	28.8	33.5	64	22.6	5	13	248	0.00	29.717 
10:55	33.5	29.8	33.5	66	23.4	4	11	248	0.00	29.717 
11:00	33.5	28.8	33.5	65	23.0	5	10	248	0.00	29.715 
11:05	33.8	29.2	33.8	62	22.2	5	8	270	0.00	29.715 
11:10	34.3	30.7	34.3	61	22.3	4	10	270	0.00	29.715 
11:15	34.3	29.0	34.3	60	21.9	6	11	270	0.00	29.718 
11:20	34.3	29.8	34.3	62	22.7	5	10	248	0.00	29.718 
11:25	34.1	29.5	34.1	63	22.8	5	11	270	0.00	29.718 
11:30	33.8	29.2	33.8	64	22.9	5	12	270	0.00	29.723 
11:35	33.5	28.0	33.5	65	23.0	6	14	270	0.00	29.723 
11:40	33.2	28.5	33.2	66	23.1	5	9	270	0.00	29.723 
11:45	32.9	29.1	32.9	68	23.5	4	10	270	0.00	29.732 
11:50	32.5	26.8	32.5	71	24.2	6	14	248	0.00	29.732 
11:55	32.4	28.5	32.4	73	24.7	4	9	248	0.00	29.732 
12:00	32.4	32.4	32.4	75	25.4	3	7	248	0.00	29.735 
12:05	32.2	27.3	32.2	75	25.2	5	11	248	0.00	29.735 
12:10	31.9	28.0	31.9	76	25.2	4	9	248	0.00	29.735 
12:15	32.1	28.2	32.1	78	26.0	4	7	270	0.00	29.735 
12:20	32.5	28.7	32.5	79	26.7	4	8	270	0.00	29.735 
12:25	33.1	33.1	33.1	77	26.7	3	7	270	0.00	29.735 
12:30	33.8	30.2	33.8	73	26.1	4	9	248	0.00	29.735 
12:35	34.1	30.5	34.1	71	25.7	4	9	248	0.00	29.735 
12:40	34.3	30.7	34.3	68	24.9	4	9	270	0.00	29.735 
12:45	34.1	30.5	34.1	67	24.3	4	6	270	0.00	29.732 
12:50	34.0	30.4	34.0	66	23.9	4	9	248	0.00	29.732 
12:55	33.7	30.0	33.7	66	23.6	4	11	248	0.00	29.732 
13:00	33.4	29.7	33.4	68	24.0	4	10	248	0.00	29.735 
13:05	33.4	29.7	33.4	67	23.6	4	10	248	0.00	29.735 
13:10	33.5	29.8	33.5	66	23.4	4	12	248	0.00	29.735 
13:15	33.4	28.7	33.4	65	22.9	5	11	270	0.00	29.733 
13:20	33.2	28.5	33.2	65	22.7	5	13	248	0.00	29.733 
13:25	33.2	28.5	33.2	66	23.1	5	9	270	0.00	29.733 
13:30	33.2	27.7	33.2	65	22.7	6	10	270	0.00	29.734 
13:35	34.0	30.4	34.0	65	23.5	4	7	270	0.00	29.734 
13:40	34.4	29.9	34.4	62	22.7	5	12	270	0.00	29.734 
13:45	34.6	30.1	34.6	62	22.9	5	12	270	0.00	29.726 
13:50	34.4	30.8	34.4	62	22.7	4	12	248	0.00	29.726 
13:55	34.0	29.4	34.0	62	22.4	5	11	248	0.00	29.726 
14:00	33.8	30.2	33.8	64	22.9	4	9	248	0.00	29.724 
14:05	34.4	34.4	34.4	63	23.1	3	8	248	0.00	29.724 
14:10	34.7	31.2	34.7	60	22.3	4	10	248	0.00	29.724 
14:15	34.6	30.1	34.6	60	22.2	5	11	248	0.00	29.722 
14:20	34.4	30.8	34.4	61	22.4	4	10	248	0.00	29.722 
14:25	34.3	30.7	34.3	61	22.3	4	9	270	0.00	29.722 
14:30	34.1	34.1	34.1	62	22.5	3	9	270	0.00	29.726 
14:35	34.0	30.4	34.0	62	22.4	4	7	270	0.00	29.726 
14:40	34.1	30.5	34.1	62	22.5	4	7	270	0.00	29.726 
14:45	34.1	29.5	34.1	62	22.5	5	10	248	0.00	29.724 
14:50	34.1	30.5	34.1	62	22.5	4	11	248	0.00	29.724 
14:55	34.3	34.3	34.3	62	22.7	3	9	270	0.00	29.724 
15:00	34.3	30.7	34.3	60	21.9	4	9	248	0.00	29.732 
15:05	34.1	29.5	34.1	58	20.9	5	12	248	0.00	29.732 
15:10	34.0	28.6	34.0	59	21.2	6	12	248	0.00	29.732 
15:15	33.8	30.2	33.8	59	21.0	4	11	270	0.00	29.732 
15:20	33.7	30.0	33.7	60	21.3	4	9	248	0.00	29.732 
15:25	33.7	33.7	33.7	61	21.7	3	7	270	0.00	29.732 
15:30	33.8	30.2	33.8	60	21.4	4	10	248	0.00	29.728 
15:35	33.7	30.0	33.7	60	21.3	4	10	270	0.00	29.728 
15:40	33.7	30.0	33.7	61	21.7	4	10	270	0.00	29.728 
15:45	33.7	30.0	33.7	62	22.1	4	9	270	0.00	29.728 
15:50	33.8	30.2	33.8	62	22.2	4	9	270	0.00	29.728 
15:55	34.0	34.0	34.0	63	22.7	3	6	248	0.00	29.728 
16:00	33.8	33.8	33.8	63	22.6	3	7	248	0.00	29.735 
16:05	33.7	30.0	33.7	62	22.1	4	11	248	0.00	29.735 
16:10	33.5	28.8	33.5	62	21.9	5	10	270	0.00	29.735 
16:15	33.4	28.7	33.4	62	21.8	5	13	270	0.00	29.735 
16:20	33.4	28.7	33.4	63	22.2	5	12	270	0.00	29.735 
16:25	33.5	33.5	33.5	64	22.6	3	7	270	0.00	29.735 
16:30	33.4	33.4	33.4	65	22.9	3	7	248	0.00	29.740 
16:35	33.4	33.4	33.4	65	22.9	3	10	248	0.00	29.740 
16:40	33.4	29.7	33.4	65	22.9	4	12	248	0.00	29.740 
16:45	33.2	29.5	33.2	66	23.1	4	11	270	0.00	29.740 
16:50	33.2	29.5	33.2	66	23.1	4	9	248	0.00	29.740 
16:55	33.1	33.1	33.1	67	23.4	3	6	248	0.00	29.740 
17:00	32.9	29.1	32.9	68	23.5	4	10	248	0.00	29.741 
17:05	32.8	29.0	32.8	69	23.8	4	7	270	0.00	29.741 
17:10	32.8	32.8	32.8	70	24.1	3	6	248	0.00	29.741 
17:15	32.8	32.8	32.8	70	24.1	3	9	248	0.00	29.747 
17:20	32.8	32.8	32.8	69	23.8	3	10	248	0.00	29.747 
17:25	32.8	29.0	32.8	69	23.8	4	9	270	0.00	29.747 
17:30	32.8	32.8	32.8	70	24.1	3	7	270	0.00	29.756 
17:35	32.8	29.0	32.8	70	24.1	4	10	248	0.00	29.756 
17:40	32.7	28.9	32.7	70	24.0	4	9	270	0.00	29.756 
17:45	32.7	28.9	32.7	71	24.4	4	10	248	0.00	29.757 
17:50	32.5	32.5	32.5	72	24.5	3	10	248	0.00	29.757 
17:55	32.2	28.3	32.2	72	24.2	4	8	248	0.00	29.757 
18:00	32.2	28.3	32.2	70	23.5	4	10	270	0.00	29.771 
18:05	32.1	26.3	32.1	68	22.7	6	15	270	0.00	29.771 
18:10	32.1	28.2	32.1	68	22.7	4	6	270	0.00	29.771 
18:15	32.1	32.1	32.1	68	22.7	3	6	248	0.00	29.778 
18:20	32.1	32.1	32.1	68	22.7	3	6	270	0.00	29.778 
18:25	31.9	28.0	31.9	69	22.9	4	11	270	0.00	29.778 
18:30	31.9	28.0	31.9	69	22.9	4	14	248	0.00	29.787 
18:35	31.8	31.8	31.8	70	23.2	3	7	270	0.00	29.787 
18:40	31.8	31.8	31.8	73	24.1	3	6	270	0.00	29.787 
18:45	31.5	31.5	31.5	75	24.5	2	5	270	0.00	29.796 
18:50	31.2	31.2	31.2	77	24.8	3	9	248	0.00	29.796 
18:55	31.0	31.0	31.0	77	24.7	3	7	248	0.00	29.796 
19:00	30.9	26.8	30.9	78	24.9	4	9	270	0.00	29.801 
19:05	30.6	26.5	30.6	79	24.9	4	9	270	0.00	29.801 
19:10	30.4	26.2	30.4	79	24.7	4	7	270	0.00	29.801 
19:15	30.4	30.4	30.4	79	24.7	3	5	248	0.00	29.808 
19:20	30.6	30.6	30.6	78	24.6	3	8	248	0.00	29.808 
19:25	30.7	30.7	30.7	78	24.7	2	4	270	0.00	29.808 
19:30	30.7	30.7	30.7	77	24.4	2	5	248	0.00	29.807 
19:35	30.7	30.7	30.7	77	24.4	2	4	248	0.00	29.807 
19:40	30.9	30.9	30.9	76	24.2	3	6	248	0.00	29.807 
19:45	30.7	26.6	30.7	77	24.4	4	6	270	0.00	29.809 
19:50	30.3	26.1	30.3	79	24.6	4	7	270	0.00	29.809 
19:55	29.8	29.8	29.8	82	25.0	2	4	248	0.00	29.809 
20:00	29.7	29.7	29.7	83	25.2	3	5	248	0.00	29.809 
20:05	29.8	29.8	29.8	82	25.0	3	6	270	0.00	29.809 
20:10	29.8	29.8	29.8	82	25.0	2	5	270	0.00	29.809 
20:15	29.8	29.8	29.8	82	25.0	2	6	248	0.00	29.813 
20:20	29.8	29.8	29.8	82	25.0	2	4	248	0.00	29.813 
20:25	29.8	29.8	29.8	83	25.3	1	3	248	0.00	29.813 
20:30	29.8	29.8	29.8	83	25.3	2	6	248	0.00	29.811 
20:35	29.8	29.8	29.8	82	25.0	1	4	248	0.00	29.811 
20:40	29.8	29.8	29.8	82	25.0	2	5	248	0.00	29.811 
20:45	29.7	29.7	29.7	82	24.9	2	6	248	0.00	29.809 
20:50	29.5	29.5	29.5	82	24.7	2	5	248	0.00	29.809 
20:55	29.4	29.4	29.4	82	24.6	2	4	248	0.00	29.809 
21:00	29.4	29.4	29.4	82	24.6	2	5	248	0.00	29.813 
21:05	29.3	29.3	29.3	82	24.5	2	4	248	0.00	29.813 
21:10	29.3	29.3	29.3	82	24.5	2	6	248	0.00	29.813 
21:15	29.3	29.3	29.3	82	24.5	2	4	270	0.00	29.819 
21:20	29.4	29.4	29.4	81	24.3	2	5	270	0.00	29.819 
21:25	29.4	29.4	29.4	81	24.3	1	3	270	0.00	29.819 
21:30	29.4	29.4	29.4	81	24.3	2	4	270	0.00	29.818 
21:35	29.5	29.5	29.5	80	24.1	2	4	248	0.00	29.818 
21:40	29.7	29.7	29.7	79	24.0	1	5	248	0.00	29.818 
21:45	29.7	29.7	29.7	79	24.0	1	3	248	0.00	29.820 
21:50	29.7	29.7	29.7	79	24.0	2	5	248	0.00	29.820 
21:55	29.8	29.8	29.8	78	23.8	2	4	248	0.00	29.820 
22:00	29.8	29.8	29.8	79	24.1	2	5	248	0.00	29.819 
22:05	29.8	29.8	29.8	78	23.8	2	5	270	0.00	29.819 
22:10	29.8	29.8	29.8	79	24.1	2	4	248	0.00	29.819 
22:15	29.8	29.8	29.8	79	24.1	2	6	248	0.00	29.819 
22:20	29.7	29.7	29.7	79	24.0	2	4	248	0.00	29.819 
22:25	29.7	29.7	29.7	80	24.3	2	4	248	0.00	29.819 
22:30	29.5	29.5	29.5	80	24.1	1	4	248	0.00	29.819 
22:35	29.5	29.5	29.5	81	24.4	2	5	248	0.00	29.819 
22:40	29.5	29.5	29.5	81	24.4	1	4	248	0.00	29.819 
22:45	29.5	29.5	29.5	81	24.4	2	4	248	0.00	29.818 
22:50	29.5	29.5	29.5	81	24.4	1	3	248	0.00	29.818 
22:55	29.5	29.5	29.5	81	24.4	2	5	248	0.00	29.818 
23:00	29.5	29.5	29.5	81	24.4	1	4	248	0.00	29.817 
23:05	29.5	29.5	29.5	81	24.4	2	4	248	0.00	29.817 
23:10	29.5	29.5	29.5	81	24.4	2	5	248	0.00	29.817 
23:15	29.5	29.5	29.5	81	24.4	1	3	248	0.00	29.818 
23:20	29.5	29.5	29.5	82	24.7	1	4	248	0.00	29.818 
23:25	29.5	29.5	29.5	81	24.4	2	6	248	0.00	29.818 
23:30	29.5	29.5	29.5	81	24.4	1	3	248	0.00	29.818 
23:35	29.5	29.5	29.5	82	24.7	1	5	248	0.00	29.818 
23:40	29.5	29.5	29.5	81	24.4	2	4	248	0.00	29.818 
23:45	29.5	29.5	29.5	81	24.4	1	3	248	0.00	29.816 
23:50	29.5	29.5	29.5	81	24.4	1	4	248	0.00	29.816 
23:55	29.5	29.5	29.5	81	24.4	1	3	248	0.00	29.816 

CoCoRaHS
IN-AL-39
A2 Web Hosting
Creative Commons License
GoDaddy
search engine by freefind advanced

loaded 2018-11-16 11:51:15 • last modified 2010-11-18 10:43:29
Privacy PolicyDisclaimer
• wx.awcolley.com is powered by PmWiki v.2002016 •
• all content (unless otherwise noted) © 2018 A W Colley